• Join FlightAware (Why Join?)
  • Login
  • US Flag 
05:02PM EDT


 

Airport Tracker/Info


-or-


 

Live Flight TrackerFlight Track Log ✈ UAL4274 ✈ 17-Apr-2013 ✈ KRIC - KCLE

Flight Track Log - Related Links

Times and Time Zones

All times are in EDT time to prevent confusion due to time zone crossing. See the UAL4274 flight status page for this flight to view local times or setup timezone preferences in your user account.

Time Position Orientation Groundspeed Altitude Reporting Facility
EDT Latitude Longitude Course Direction KTS MPH feet Rate Location/Type
06:33AM 37.4333 -77.3667 335° Northwest 206 237 3,200  Level Potomac TRACON
06:33AM 37.4333 -77.4167 270° West 223 257 5,900 2,880 Climbing Potomac TRACON
06:34AM 37.4500 -77.5000 284° West 248 285 8,700 1,680 Climbing Potomac TRACON
06:36AM 37.5492 -77.6219 316° Northwest 262 302 10,900 1,320 Climbing Washington Center
06:37AM 37.6167 -77.6997 318° Northwest 296 341 12,700 1,860 Climbing Washington Center
06:38AM 38.0195 -77.6517 335° Northwest  Level FlightAware Approximate
06:38AM 37.6883 -77.7803 318° Northwest 328 377 14,700  Level Washington Center
06:39AM 37.7639 -77.8642 319° Northwest 347 399 16,800 1,920 Climbing Washington Center
06:40AM 37.8372 -77.9478 318° Northwest 354 407 18,600 1,860 Climbing Washington Center
06:41AM 37.9172 -78.0186 325° Northwest 354 407 20,600 1,920 Climbing Washington Center
06:42AM 38.0192 -78.0378 352° North 348 400 22,500 1,800 Climbing Washington Center
06:43AM 38.1061 -78.0592 349° North 353 406 24,300 1,860 Climbing Washington Center
06:44AM 38.2081 -78.0783 352° North 359 413 26,300 1,320 Climbing Washington Center
06:45AM 38.3097 -78.0975 352° North 359 413 27,000 300 Climbing Washington Center
06:46AM 38.4197 -78.1197 351° North 380 437 27,000  Level Washington Center
06:47AM 38.5339 -78.1422 351° North 397 457 27,000  Level Washington Center
06:48AM 38.6503 -78.1650 351° North 409 471 27,000  Level Washington Center
06:49AM 38.7664 -78.1903 350° North 409 471 27,000  Level Washington Center
06:50AM 38.8808 -78.2103 352° North 414 476 27,000  Level Washington Center
06:51AM 38.9992 -78.2225 355° North 414 476 27,000  Level Washington Center
06:52AM 39.1136 -78.2347 355° North 414 476 27,000  Level Washington Center
06:53AM 39.2303 -78.2469 355° North 414 476 27,000  Level Washington Center
06:54AM 39.3467 -78.2592 355° North 419 482 27,000  Level Washington Center
06:56AM 39.5308 -78.2764 356° North 424 488 27,000  Level Cleveland Center
06:57AM 39.6417 -78.2861 356° North 417 480 27,000  Level Cleveland Center
06:58AM 39.7506 -78.3042 353° North 401 461 27,000  Level Cleveland Center
06:59AM 39.8497 -78.3739 332° Northwest 377 434 27,000  Level Cleveland Center
07:00AM 39.9186 -78.4853 309° West 363 418 27,000  Level Cleveland Center
07:01AM 39.9872 -78.5942 309° West 372 428 27,000  Level Cleveland Center
07:02AM 40.0536 -78.7033 308° West 378 435 27,000  Level Cleveland Center
07:03AM 40.1222 -78.8128 309° West 384 442 27,000  Level Cleveland Center
07:04AM 40.1906 -78.9253 309° West 389 448 27,000  Level Cleveland Center
07:05AM 40.2589 -79.0350 309° West 389 448 27,000  Level Cleveland Center
07:06AM 40.3250 -79.1453 308° West 389 448 27,000 480 Level Cleveland Center
07:07AM 40.3889 -79.2528 308° West 389 448 28,000 480 Climbing Cleveland Center
07:08AM 40.4567 -79.3606 310° West 389 448 28,000  Level Cleveland Center
07:09AM 40.5225 -79.4686 309° West 389 448 28,000  Level Cleveland Center
07:10AM 40.5903 -79.5769 310° West 389 448 28,000  Level Cleveland Center
07:11AM 40.6558 -79.6881 308° West 389 448 28,000  Level Cleveland Center
07:12AM 40.7189 -79.7942 308° West 389 448 28,000  Level Cleveland Center
07:13AM 40.7864 -79.9058 309° West 389 448 28,000  Level Cleveland Center
07:14AM 40.8494 -80.0150 307° West 389 448 28,000 -120 Level Cleveland Center
07:15AM 40.9147 -80.1242 308° West 389 448 27,800 -600 Descending Cleveland Center
07:16AM 40.9733 -80.2228 308° West 389 448 26,800 -900 Descending Cleveland Center
07:17AM 41.0342 -80.3297 307° West 384 442 26,100 -600 Descending Cleveland Center
07:18AM 41.0989 -80.4369 309° West 379 436 25,600 -600 Descending Cleveland Center
07:19AM 41.1678 -80.5556 308° West 379 436 24,900 -1,800 Descending Cleveland Center
07:20AM 41.2283 -80.6631 307° West 367 422 22,100 -2,880 Descending Cleveland Center
07:21AM 41.2844 -80.7600 308° West 356 410 19,200 -2,760 Descending Cleveland Center
07:22AM 41.3406 -80.8597 307° West 341 392 16,600 -2,700 Descending Cleveland Center
07:23AM 41.3944 -80.9486 309° West 325 374 13,900 -2,460 Descending Cleveland Center
07:24AM 41.4317 -81.0125 308° West 313 360 12,400 -2,340 Descending Cleveland Center
07:24AM 41.4442 -81.0431 299° West 313 360 11,600 -2,160 Descending Cleveland Center
07:25AM 41.4753 -81.0958 308° West 293 337 10,500 -1,500 Descending Cleveland Center
07:25AM 41.4939 -81.1292 307° West 301 346 10,100 -420 Descending Cleveland Center
07:26AM 41.5103 -81.1875 291° West 291 335 10,100  Level Cleveland Center
07:26AM 41.5100 -81.2181 269° West 287 330 10,100  Level Cleveland Center
07:27AM 41.4992 -81.2956 259° West 292 336 10,100  Level Cleveland Center
07:27AM 41.4969 -81.3206 263° West 280 322 10,100  Level Cleveland Center
07:28AM 41.4839 -81.4036 258° West 284 327 10,100  Level Cleveland Center
07:28AM 41.4817 -81.4256 262° West 285 328 10,100 -840 Level Cleveland Center
07:29AM 41.4706 -81.5031 259° West 255 293 9,300 -1,140 Descending Cleveland Center
07:29AM 41.4683 -81.5197 260° West 275 316 9,000 -1,140 Descending Cleveland Center
07:30AM 41.4572 -81.5861 257° West 232 267 8,200 -1,020 Descending Cleveland Center
07:30AM 41.4572 -81.6028 270° West 252 290 8,000 -840 Descending Cleveland Center
07:31AM 41.4272 -81.6825 243° Southwest 234 269 7,100 -540 Descending Cleveland Center
07:32AM 41.3953 -81.7428 235° Southwest 243 280 7,100  Level Cleveland Center
07:32AM 41.3911 -81.7539 243° Southwest 242 278 7,100 -240 Level Cleveland Center
07:33AM 41.3572 -81.8142 233° Southwest 235 270 6,900 -1,380 Descending Cleveland Center
07:34AM 41.3250 -81.8853 239° Southwest 236 272 4,800 -2,100 Descending Cleveland Center
07:35AM 41.3283 -81.9572 274° West 233 268 2,700 -1,440 Descending Cleveland Center
07:36AM 41.3642 -81.9278 32° Northeast 127 146 1,900 -780 Descending Cleveland Center
07:37AM 41.3875 -81.8978 44° Northeast 112 129 1,200 -720 Descending Cleveland Center